sensor_id;sensor_type;location;lat;lon;timestamp;temperature;humidity
31084;DHT22;36333;51.382;0.016;2022-08-19T00:00:38;19.10;99.90
31084;DHT22;36333;51.382;0.016;2022-08-19T00:03:06;19.10;99.90
31084;DHT22;36333;51.382;0.016;2022-08-19T00:05:35;19.10;99.90
31084;DHT22;36333;51.382;0.016;2022-08-19T00:08:03;19.10;99.90
31084;DHT22;36333;51.382;0.016;2022-08-19T00:10:31;19.10;99.90
31084;DHT22;36333;51.382;0.016;2022-08-19T00:12:58;19.10;99.90
31084;DHT22;36333;51.382;0.016;2022-08-19T00:15:26;19.20;99.90
31084;DHT22;36333;51.382;0.016;2022-08-19T00:17:54;19.20;99.90
31084;DHT22;36333;51.382;0.016;2022-08-19T00:20:21;19.20;99.90
31084;DHT22;36333;51.382;0.016;2022-08-19T00:22:49;19.20;99.90
31084;DHT22;36333;51.382;0.016;2022-08-19T00:25:17;19.30;99.90
31084;DHT22;36333;51.382;0.016;2022-08-19T00:27:59;19.30;99.90
31084;DHT22;36333;51.382;0.016;2022-08-19T00:30:26;19.30;99.90
31084;DHT22;36333;51.382;0.016;2022-08-19T00:32:57;19.30;99.90
31084;DHT22;36333;51.382;0.016;2022-08-19T00:35:25;19.30;99.90
31084;DHT22;36333;51.382;0.016;2022-08-19T00:37:54;19.40;99.90
31084;DHT22;36333;51.382;0.016;2022-08-19T00:40:22;19.40;99.90
31084;DHT22;36333;51.382;0.016;2022-08-19T00:42:50;19.40;99.90
31084;DHT22;36333;51.382;0.016;2022-08-19T00:45:23;19.40;99.90
31084;DHT22;36333;51.382;0.016;2022-08-19T00:47:51;19.40;99.90
31084;DHT22;36333;51.382;0.016;2022-08-19T00:50:20;19.40;99.90
31084;DHT22;36333;51.382;0.016;2022-08-19T00:52:49;19.40;99.90
31084;DHT22;36333;51.382;0.016;2022-08-19T00:55:21;19.50;99.90
31084;DHT22;36333;51.382;0.016;2022-08-19T00:58:04;19.40;99.90
31084;DHT22;36333;51.382;0.016;2022-08-19T01:00:33;19.50;99.90
31084;DHT22;36333;51.382;0.016;2022-08-19T01:03:10;19.50;99.90
31084;DHT22;36333;51.382;0.016;2022-08-19T01:05:41;19.50;99.90
31084;DHT22;36333;51.382;0.016;2022-08-19T01:08:09;19.50;99.90
31084;DHT22;36333;51.382;0.016;2022-08-19T01:10:39;19.50;99.90
31084;DHT22;36333;51.382;0.016;2022-08-19T01:13:07;19.50;99.90
31084;DHT22;36333;51.382;0.016;2022-08-19T01:15:46;19.50;99.90
31084;DHT22;36333;51.382;0.016;2022-08-19T01:18:16;19.50;99.90
31084;DHT22;36333;51.382;0.016;2022-08-19T01:20:45;19.50;99.90
31084;DHT22;36333;51.382;0.016;2022-08-19T01:23:13;19.40;99.90
31084;DHT22;36333;51.382;0.016;2022-08-19T01:25:46;19.40;99.90
31084;DHT22;36333;51.382;0.016;2022-08-19T01:28:21;19.40;99.90
31084;DHT22;36333;51.382;0.016;2022-08-19T01:31:17;19.40;99.90
31084;DHT22;36333;51.382;0.016;2022-08-19T01:33:55;19.40;99.90
31084;DHT22;36333;51.382;0.016;2022-08-19T01:39:01;19.30;99.90
31084;DHT22;36333;51.382;0.016;2022-08-19T01:41:29;19.30;99.90
31084;DHT22;36333;51.382;0.016;2022-08-19T01:43:56;19.20;99.90
31084;DHT22;36333;51.382;0.016;2022-08-19T01:46:44;19.30;99.90
31084;DHT22;36333;51.382;0.016;2022-08-19T01:49:12;19.30;99.90
31084;DHT22;36333;51.382;0.016;2022-08-19T01:51:40;19.30;99.90
31084;DHT22;36333;51.382;0.016;2022-08-19T01:54:09;19.30;99.90
31084;DHT22;36333;51.382;0.016;2022-08-19T01:56:37;19.40;99.90
31084;DHT22;36333;51.382;0.016;2022-08-19T01:59:10;19.40;99.90
31084;DHT22;36333;51.382;0.016;2022-08-19T02:01:39;19.30;99.90
31084;DHT22;36333;51.382;0.016;2022-08-19T02:04:07;19.40;99.90
31084;DHT22;36333;51.382;0.016;2022-08-19T02:06:35;19.30;99.90
31084;DHT22;36333;51.382;0.016;2022-08-19T02:09:04;19.30;99.90
31084;DHT22;36333;51.382;0.016;2022-08-19T02:11:34;19.20;99.90
31084;DHT22;36333;51.382;0.016;2022-08-19T02:14:05;19.20;99.90
31084;DHT22;36333;51.382;0.016;2022-08-19T02:16:35;19.20;99.90
31084;DHT22;36333;51.382;0.016;2022-08-19T02:19:03;19.20;99.90
31084;DHT22;36333;51.382;0.016;2022-08-19T02:21:32;19.20;99.90
31084;DHT22;36333;51.382;0.016;2022-08-19T02:24:00;19.20;99.90
31084;DHT22;36333;51.382;0.016;2022-08-19T02:26:28;19.20;99.90
31084;DHT22;36333;51.382;0.016;2022-08-19T02:28:56;19.30;99.90
31084;DHT22;36333;51.382;0.016;2022-08-19T02:31:25;19.30;99.90
31084;DHT22;36333;51.382;0.016;2022-08-19T02:33:53;19.40;99.90
31084;DHT22;36333;51.382;0.016;2022-08-19T02:36:24;19.40;99.90
31084;DHT22;36333;51.382;0.016;2022-08-19T02:38:52;19.40;99.90
31084;DHT22;36333;51.382;0.016;2022-08-19T02:41:24;19.40;99.90
31084;DHT22;36333;51.382;0.016;2022-08-19T02:43:55;19.50;99.90
31084;DHT22;36333;51.382;0.016;2022-08-19T02:46:46;19.50;99.90
31084;DHT22;36333;51.382;0.016;2022-08-19T02:49:14;19.50;99.90
31084;DHT22;36333;51.382;0.016;2022-08-19T02:51:45;19.50;99.90
31084;DHT22;36333;51.382;0.016;2022-08-19T02:54:14;19.50;99.90
31084;DHT22;36333;51.382;0.016;2022-08-19T02:56:43;19.50;99.90
31084;DHT22;36333;51.382;0.016;2022-08-19T02:59:11;19.50;99.90
31084;DHT22;36333;51.382;0.016;2022-08-19T03:01:41;19.60;99.90
31084;DHT22;36333;51.382;0.016;2022-08-19T03:04:11;19.60;99.90
31084;DHT22;36333;51.382;0.016;2022-08-19T03:06:41;19.60;99.90
31084;DHT22;36333;51.382;0.016;2022-08-19T03:09:09;19.60;99.90
31084;DHT22;36333;51.382;0.016;2022-08-19T03:11:38;19.60;99.90
31084;DHT22;36333;51.382;0.016;2022-08-19T03:14:07;19.60;99.90
31084;DHT22;36333;51.382;0.016;2022-08-19T03:16:49;19.60;99.90
31084;DHT22;36333;51.382;0.016;2022-08-19T03:19:18;19.60;99.90
31084;DHT22;36333;51.382;0.016;2022-08-19T03:21:46;19.60;99.90
31084;DHT22;36333;51.382;0.016;2022-08-19T03:24:16;19.60;99.90
31084;DHT22;36333;51.382;0.016;2022-08-19T03:26:47;19.60;99.90
31084;DHT22;36333;51.382;0.016;2022-08-19T03:29:16;19.50;99.90
31084;DHT22;36333;51.382;0.016;2022-08-19T03:32:00;19.30;99.90
31084;DHT22;36333;51.382;0.016;2022-08-19T03:34:33;19.50;99.90
31084;DHT22;36333;51.382;0.016;2022-08-19T03:37:10;19.50;99.90
31084;DHT22;36333;51.382;0.016;2022-08-19T03:39:40;19.50;99.90
31084;DHT22;36333;51.382;0.016;2022-08-19T03:42:09;19.50;99.90
31084;DHT22;36333;51.382;0.016;2022-08-19T03:44:57;19.60;99.90
31084;DHT22;36333;51.382;0.016;2022-08-19T03:47:25;19.60;99.90
31084;DHT22;36333;51.382;0.016;2022-08-19T03:49:53;19.60;99.90
31084;DHT22;36333;51.382;0.016;2022-08-19T03:52:20;19.60;99.90
31084;DHT22;36333;51.382;0.016;2022-08-19T03:54:48;19.60;99.90
31084;DHT22;36333;51.382;0.016;2022-08-19T03:57:16;19.60;99.90
31084;DHT22;36333;51.382;0.016;2022-08-19T03:59:43;19.60;99.90
31084;DHT22;36333;51.382;0.016;2022-08-19T04:02:12;19.50;99.90
31084;DHT22;36333;51.382;0.016;2022-08-19T04:04:42;19.50;99.90
31084;DHT22;36333;51.382;0.016;2022-08-19T04:07:12;19.40;99.90
31084;DHT22;36333;51.382;0.016;2022-08-19T04:09:43;19.40;99.90
31084;DHT22;36333;51.382;0.016;2022-08-19T04:12:11;19.30;99.90
31084;DHT22;36333;51.382;0.016;2022-08-19T04:14:39;19.30;99.90
31084;DHT22;36333;51.382;0.016;2022-08-19T04:17:06;19.20;99.90
31084;DHT22;36333;51.382;0.016;2022-08-19T04:19:35;19.20;99.90
31084;DHT22;36333;51.382;0.016;2022-08-19T04:22:03;19.20;99.90
31084;DHT22;36333;51.382;0.016;2022-08-19T04:24:31;19.20;99.90
31084;DHT22;36333;51.382;0.016;2022-08-19T04:27:00;19.20;99.90
31084;DHT22;36333;51.382;0.016;2022-08-19T04:29:28;19.20;99.90
31084;DHT22;36333;51.382;0.016;2022-08-19T04:31:57;19.20;99.90
31084;DHT22;36333;51.382;0.016;2022-08-19T04:34:27;19.20;99.90
31084;DHT22;36333;51.382;0.016;2022-08-19T04:36:57;21.50;99.90
31084;DHT22;36333;51.382;0.016;2022-08-19T04:39:30;19.30;99.90
31084;DHT22;36333;51.382;0.016;2022-08-19T04:42:30;19.30;99.90
31084;DHT22;36333;51.382;0.016;2022-08-19T04:45:13;19.30;99.90
31084;DHT22;36333;51.382;0.016;2022-08-19T04:47:42;19.30;99.90
31084;DHT22;36333;51.382;0.016;2022-08-19T04:50:27;19.30;99.90
31084;DHT22;36333;51.382;0.016;2022-08-19T04:52:55;19.30;99.90
31084;DHT22;36333;51.382;0.016;2022-08-19T04:55:23;19.30;99.90
31084;DHT22;36333;51.382;0.016;2022-08-19T04:57:54;19.30;99.90
31084;DHT22;36333;51.382;0.016;2022-08-19T05:00:22;19.40;99.90
31084;DHT22;36333;51.382;0.016;2022-08-19T05:02:49;19.30;99.90
31084;DHT22;36333;51.382;0.016;2022-08-19T05:05:17;19.30;99.90
31084;DHT22;36333;51.382;0.016;2022-08-19T05:07:45;19.40;99.90
31084;DHT22;36333;51.382;0.016;2022-08-19T05:10:12;19.40;99.90
31084;DHT22;36333;51.382;0.016;2022-08-19T05:12:40;19.40;99.90
31084;DHT22;36333;51.382;0.016;2022-08-19T05:15:08;19.40;99.90
31084;DHT22;36333;51.382;0.016;2022-08-19T05:17:36;19.40;99.90
31084;DHT22;36333;51.382;0.016;2022-08-19T05:20:06;19.40;99.90
31084;DHT22;36333;51.382;0.016;2022-08-19T05:22:53;19.40;99.90
31084;DHT22;36333;51.382;0.016;2022-08-19T05:25:21;19.40;99.90
31084;DHT22;36333;51.382;0.016;2022-08-19T05:27:49;19.40;99.90
31084;DHT22;36333;51.382;0.016;2022-08-19T05:30:17;19.50;99.90
31084;DHT22;36333;51.382;0.016;2022-08-19T05:33:00;19.50;99.90
31084;DHT22;36333;51.382;0.016;2022-08-19T05:35:27;19.60;99.90
31084;DHT22;36333;51.382;0.016;2022-08-19T05:38:01;19.60;99.90
31084;DHT22;36333;51.382;0.016;2022-08-19T05:40:28;19.60;99.90
31084;DHT22;36333;51.382;0.016;2022-08-19T05:42:56;19.60;99.90
31084;DHT22;36333;51.382;0.016;2022-08-19T05:45:23;19.60;99.90
31084;DHT22;36333;51.382;0.016;2022-08-19T05:47:52;19.60;99.90
31084;DHT22;36333;51.382;0.016;2022-08-19T05:50:20;19.60;99.90
31084;DHT22;36333;51.382;0.016;2022-08-19T05:52:47;19.70;99.90
31084;DHT22;36333;51.382;0.016;2022-08-19T05:55:17;19.70;99.90
31084;DHT22;36333;51.382;0.016;2022-08-19T05:57:47;19.80;99.90
31084;DHT22;36333;51.382;0.016;2022-08-19T06:00:15;19.80;99.90
31084;DHT22;36333;51.382;0.016;2022-08-19T06:02:47;19.80;99.90
31084;DHT22;36333;51.382;0.016;2022-08-19T06:05:15;19.90;99.90
31084;DHT22;36333;51.382;0.016;2022-08-19T06:07:43;19.90;99.90
31084;DHT22;36333;51.382;0.016;2022-08-19T06:10:11;20.10;99.90
31084;DHT22;36333;51.382;0.016;2022-08-19T06:12:38;20.20;99.90
31084;DHT22;36333;51.382;0.016;2022-08-19T06:15:12;20.30;99.90
31084;DHT22;36333;51.382;0.016;2022-08-19T06:17:41;20.30;99.90
31084;DHT22;36333;51.382;0.016;2022-08-19T06:20:13;20.30;99.90
31084;DHT22;36333;51.382;0.016;2022-08-19T06:22:46;20.30;99.90
31084;DHT22;36333;51.382;0.016;2022-08-19T06:25:14;20.30;99.90
31084;DHT22;36333;51.382;0.016;2022-08-19T06:27:42;20.30;99.90
31084;DHT22;36333;51.382;0.016;2022-08-19T06:30:30;20.30;99.90
31084;DHT22;36333;51.382;0.016;2022-08-19T06:32:58;20.40;99.90
31084;DHT22;36333;51.382;0.016;2022-08-19T06:35:25;20.40;99.90
31084;DHT22;36333;51.382;0.016;2022-08-19T06:37:53;20.40;99.90
31084;DHT22;36333;51.382;0.016;2022-08-19T06:40:22;20.50;99.90
31084;DHT22;36333;51.382;0.016;2022-08-19T06:42:49;20.50;99.90
31084;DHT22;36333;51.382;0.016;2022-08-19T06:45:22;20.60;99.90
31084;DHT22;36333;51.382;0.016;2022-08-19T06:48:00;20.60;99.90
31084;DHT22;36333;51.382;0.016;2022-08-19T06:50:28;20.60;99.90
31084;DHT22;36333;51.382;0.016;2022-08-19T06:52:56;19.40;99.90
31084;DHT22;36333;51.382;0.016;2022-08-19T06:55:27;20.70;99.90
31084;DHT22;36333;51.382;0.016;2022-08-19T06:58:02;20.80;99.90
31084;DHT22;36333;51.382;0.016;2022-08-19T07:00:31;20.80;99.90
31084;DHT22;36333;51.382;0.016;2022-08-19T07:02:59;20.70;99.90
31084;DHT22;36333;51.382;0.016;2022-08-19T07:05:40;20.60;99.90
31084;DHT22;36333;51.382;0.016;2022-08-19T07:08:12;20.60;99.30
31084;DHT22;36333;51.382;0.016;2022-08-19T07:10:44;20.50;98.20
31084;DHT22;36333;51.382;0.016;2022-08-19T07:13:12;20.50;98.90
31084;DHT22;36333;51.382;0.016;2022-08-19T07:15:39;20.60;98.80
31084;DHT22;36333;51.382;0.016;2022-08-19T07:18:07;20.60;99.00
31084;DHT22;36333;51.382;0.016;2022-08-19T07:20:39;20.70;98.90
31084;DHT22;36333;51.382;0.016;2022-08-19T07:23:09;20.70;98.60
31084;DHT22;36333;51.382;0.016;2022-08-19T07:25:43;20.80;98.70
31084;DHT22;36333;51.382;0.016;2022-08-19T07:28:19;20.80;98.30
31084;DHT22;36333;51.382;0.016;2022-08-19T07:30:51;20.90;98.10
31084;DHT22;36333;51.382;0.016;2022-08-19T07:33:19;20.90;97.90
31084;DHT22;36333;51.382;0.016;2022-08-19T07:35:47;20.80;98.10
31084;DHT22;36333;51.382;0.016;2022-08-19T07:38:15;20.80;98.30
31084;DHT22;36333;51.382;0.016;2022-08-19T07:40:44;20.10;98.30
31084;DHT22;36333;51.382;0.016;2022-08-19T07:43:14;20.70;98.50
31084;DHT22;36333;51.382;0.016;2022-08-19T07:45:45;20.80;98.50
31084;DHT22;36333;51.382;0.016;2022-08-19T07:48:12;20.80;98.60
31084;DHT22;36333;51.382;0.016;2022-08-19T07:50:41;20.70;98.80
31084;DHT22;36333;51.382;0.016;2022-08-19T07:53:09;20.80;98.70
31084;DHT22;36333;51.382;0.016;2022-08-19T07:55:37;20.90;98.60
31084;DHT22;36333;51.382;0.016;2022-08-19T07:58:12;20.90;98.50
31084;DHT22;36333;51.382;0.016;2022-08-19T08:00:41;21.00;98.00
31084;DHT22;36333;51.382;0.016;2022-08-19T08:03:09;21.10;97.80
31084;DHT22;36333;51.382;0.016;2022-08-19T08:05:36;21.30;97.70
31084;DHT22;36333;51.382;0.016;2022-08-19T08:08:22;21.50;97.00
31084;DHT22;36333;51.382;0.016;2022-08-19T08:11:19;21.70;97.10
31084;DHT22;36333;51.382;0.016;2022-08-19T08:13:48;21.80;96.70
31084;DHT22;36333;51.382;0.016;2022-08-19T08:16:28;21.90;96.60
31084;DHT22;36333;51.382;0.016;2022-08-19T08:19:00;21.90;96.40
31084;DHT22;36333;51.382;0.016;2022-08-19T08:21:28;22.00;96.20
31084;DHT22;36333;51.382;0.016;2022-08-19T08:23:56;22.10;95.80
31084;DHT22;36333;51.382;0.016;2022-08-19T08:26:24;22.10;95.30
31084;DHT22;36333;51.382;0.016;2022-08-19T08:28:52;22.20;95.50
31084;DHT22;36333;51.382;0.016;2022-08-19T08:31:23;22.40;95.10
31084;DHT22;36333;51.382;0.016;2022-08-19T08:33:51;22.50;95.00
31084;DHT22;36333;51.382;0.016;2022-08-19T08:36:18;22.50;94.40
31084;DHT22;36333;51.382;0.016;2022-08-19T08:38:46;22.50;94.60
31084;DHT22;36333;51.382;0.016;2022-08-19T08:44:01;22.70;93.70
31084;DHT22;36333;51.382;0.016;2022-08-19T08:46:42;22.90;93.70
31084;DHT22;36333;51.382;0.016;2022-08-19T08:49:41;23.00;93.10
31084;DHT22;36333;51.382;0.016;2022-08-19T08:52:32;23.20;91.90
31084;DHT22;36333;51.382;0.016;2022-08-19T08:55:27;23.30;91.90
31084;DHT22;36333;51.382;0.016;2022-08-19T08:58:13;23.30;91.70
31084;DHT22;36333;51.382;0.016;2022-08-19T09:00:46;23.10;91.80
31084;DHT22;36333;51.382;0.016;2022-08-19T09:03:23;23.00;92.50
31084;DHT22;36333;51.382;0.016;2022-08-19T09:12:01;22.90;92.10
31084;DHT22;36333;51.382;0.016;2022-08-19T09:14:47;22.90;91.50
31084;DHT22;36333;51.382;0.016;2022-08-19T09:17:21;22.70;91.50
31084;DHT22;36333;51.382;0.016;2022-08-19T09:20:03;22.50;92.10
31084;DHT22;36333;51.382;0.016;2022-08-19T09:22:40;22.30;92.30
31084;DHT22;36333;51.382;0.016;2022-08-19T09:25:22;22.30;92.30
31084;DHT22;36333;51.382;0.016;2022-08-19T09:27:56;22.30;92.30
31084;DHT22;36333;51.382;0.016;2022-08-19T09:30:38;22.50;92.10
31084;DHT22;36333;51.382;0.016;2022-08-19T09:33:07;22.80;92.00
31084;DHT22;36333;51.382;0.016;2022-08-19T09:35:35;22.90;91.50
31084;DHT22;36333;51.382;0.016;2022-08-19T09:38:20;23.10;90.90
31084;DHT22;36333;51.382;0.016;2022-08-19T09:40:49;23.10;90.90
31084;DHT22;36333;51.382;0.016;2022-08-19T09:43:17;23.20;91.00
31084;DHT22;36333;51.382;0.016;2022-08-19T09:46:03;23.10;90.80
31084;DHT22;36333;51.382;0.016;2022-08-19T09:48:37;23.00;91.10
31084;DHT22;36333;51.382;0.016;2022-08-19T09:51:06;22.90;90.80
31084;DHT22;36333;51.382;0.016;2022-08-19T09:53:38;23.00;90.50
31084;DHT22;36333;51.382;0.016;2022-08-19T09:56:06;22.90;90.50
31084;DHT22;36333;51.382;0.016;2022-08-19T09:58:37;22.90;90.50
31084;DHT22;36333;51.382;0.016;2022-08-19T10:01:06;22.80;90.40
31084;DHT22;36333;51.382;0.016;2022-08-19T10:03:35;22.80;90.30
31084;DHT22;36333;51.382;0.016;2022-08-19T10:06:04;22.70;90.30
31084;DHT22;36333;51.382;0.016;2022-08-19T10:08:44;22.60;90.20
31084;DHT22;36333;51.382;0.016;2022-08-19T10:11:17;22.60;90.40
31084;DHT22;36333;51.382;0.016;2022-08-19T10:14:06;22.70;90.70
31084;DHT22;36333;51.382;0.016;2022-08-19T10:16:44;22.80;90.20
31084;DHT22;36333;51.382;0.016;2022-08-19T10:19:14;23.00;90.50
31084;DHT22;36333;51.382;0.016;2022-08-19T10:21:53;23.00;89.50
31084;DHT22;36333;51.382;0.016;2022-08-19T10:24:29;23.10;88.80
31084;DHT22;36333;51.382;0.016;2022-08-19T10:26:58;23.20;88.90
31084;DHT22;36333;51.382;0.016;2022-08-19T10:29:27;23.20;88.80
31084;DHT22;36333;51.382;0.016;2022-08-19T10:32:24;23.30;88.70
31084;DHT22;36333;51.382;0.016;2022-08-19T10:35:01;23.50;89.10
31084;DHT22;36333;51.382;0.016;2022-08-19T10:37:32;23.70;88.00
31084;DHT22;36333;51.382;0.016;2022-08-19T10:40:08;23.90;87.60
31084;DHT22;36333;51.382;0.016;2022-08-19T10:42:40;24.50;87.50
31084;DHT22;36333;51.382;0.016;2022-08-19T10:45:08;24.40;90.20
31084;DHT22;36333;51.382;0.016;2022-08-19T10:47:36;24.60;86.30
31084;DHT22;36333;51.382;0.016;2022-08-19T10:50:04;24.70;85.00
31084;DHT22;36333;51.382;0.016;2022-08-19T10:52:56;24.70;84.40
31084;DHT22;36333;51.382;0.016;2022-08-19T10:55:24;24.50;85.30
31084;DHT22;36333;51.382;0.016;2022-08-19T10:58:17;24.40;84.80
31084;DHT22;36333;51.382;0.016;2022-08-19T11:00:57;24.20;85.40
31084;DHT22;36333;51.382;0.016;2022-08-19T11:03:26;24.00;85.60
31084;DHT22;36333;51.382;0.016;2022-08-19T11:06:06;23.70;86.50
31084;DHT22;36333;51.382;0.016;2022-08-19T11:08:35;24.50;87.70
31084;DHT22;36333;51.382;0.016;2022-08-19T11:11:06;23.40;88.20
31084;DHT22;36333;51.382;0.016;2022-08-19T11:13:36;23.30;88.20
31084;DHT22;36333;51.382;0.016;2022-08-19T11:16:06;23.30;88.60
31084;DHT22;36333;51.382;0.016;2022-08-19T11:18:40;23.50;89.90
31084;DHT22;36333;51.382;0.016;2022-08-19T11:21:15;23.70;89.40
31084;DHT22;36333;51.382;0.016;2022-08-19T11:23:49;23.90;88.50
31084;DHT22;36333;51.382;0.016;2022-08-19T11:26:19;24.20;87.80
31084;DHT22;36333;51.382;0.016;2022-08-19T11:28:47;23.70;86.70
31084;DHT22;36333;51.382;0.016;2022-08-19T11:31:20;24.30;86.00
31084;DHT22;36333;51.382;0.016;2022-08-19T11:33:57;24.10;86.00
31084;DHT22;36333;51.382;0.016;2022-08-19T11:36:25;24.00;86.30
31084;DHT22;36333;51.382;0.016;2022-08-19T11:38:55;23.90;86.40
31084;DHT22;36333;51.382;0.016;2022-08-19T11:41:24;23.90;86.40
31084;DHT22;36333;51.382;0.016;2022-08-19T11:43:53;24.00;86.30
31084;DHT22;36333;51.382;0.016;2022-08-19T11:46:24;24.20;86.00
31084;DHT22;36333;51.382;0.016;2022-08-19T11:48:52;24.40;85.60
31084;DHT22;36333;51.382;0.016;2022-08-19T11:51:21;24.80;85.00
31084;DHT22;36333;51.382;0.016;2022-08-19T11:53:53;25.10;83.40
31084;DHT22;36333;51.382;0.016;2022-08-19T11:56:24;25.30;83.50
31084;DHT22;36333;51.382;0.016;2022-08-19T11:58:55;25.10;82.50
31084;DHT22;36333;51.382;0.016;2022-08-19T12:01:28;24.80;82.50
31084;DHT22;36333;51.382;0.016;2022-08-19T12:03:58;24.70;82.60
31084;DHT22;36333;51.382;0.016;2022-08-19T12:06:30;24.70;83.10
31084;DHT22;36333;51.382;0.016;2022-08-19T12:09:02;24.70;81.60
31084;DHT22;36333;51.382;0.016;2022-08-19T12:11:30;24.50;82.20
31084;DHT22;36333;51.382;0.016;2022-08-19T12:14:01;24.50;82.10
31084;DHT22;36333;51.382;0.016;2022-08-19T12:16:32;24.60;80.90
31084;DHT22;36333;51.382;0.016;2022-08-19T12:19:02;24.60;80.10
31084;DHT22;36333;51.382;0.016;2022-08-19T12:21:34;24.90;79.50
31084;DHT22;36333;51.382;0.016;2022-08-19T12:24:03;25.00;77.70
31084;DHT22;36333;51.382;0.016;2022-08-19T12:26:33;25.10;77.50
31084;DHT22;36333;51.382;0.016;2022-08-19T12:29:21;25.20;77.20
31084;DHT22;36333;51.382;0.016;2022-08-19T12:31:51;25.30;76.40
31084;DHT22;36333;51.382;0.016;2022-08-19T12:34:18;25.60;75.40
31084;DHT22;36333;51.382;0.016;2022-08-19T12:36:47;25.90;75.20
31084;DHT22;36333;51.382;0.016;2022-08-19T12:39:17;25.90;74.70
31084;DHT22;36333;51.382;0.016;2022-08-19T12:41:44;25.90;74.60
31084;DHT22;36333;51.382;0.016;2022-08-19T12:44:22;25.80;74.10
31084;DHT22;36333;51.382;0.016;2022-08-19T12:46:58;25.60;74.10
31084;DHT22;36333;51.382;0.016;2022-08-19T12:49:42;25.40;74.30
31084;DHT22;36333;51.382;0.016;2022-08-19T12:52:23;25.20;73.80
31084;DHT22;36333;51.382;0.016;2022-08-19T12:55:18;24.80;74.40
31084;DHT22;36333;51.382;0.016;2022-08-19T12:57:46;25.10;74.70
31084;DHT22;36333;51.382;0.016;2022-08-19T13:00:21;25.10;72.60
31084;DHT22;36333;51.382;0.016;2022-08-19T13:02:56;25.10;71.10
31084;DHT22;36333;51.382;0.016;2022-08-19T13:05:28;26.00;73.30
31084;DHT22;36333;51.382;0.016;2022-08-19T13:07:58;25.40;69.90
31084;DHT22;36333;51.382;0.016;2022-08-19T13:10:30;25.50;70.70
31084;DHT22;36333;51.382;0.016;2022-08-19T13:13:14;25.40;69.50
31084;DHT22;36333;51.382;0.016;2022-08-19T13:15:47;25.60;69.70
31084;DHT22;36333;51.382;0.016;2022-08-19T13:18:48;25.60;70.10
31084;DHT22;36333;51.382;0.016;2022-08-19T13:21:20;25.80;67.80
31084;DHT22;36333;51.382;0.016;2022-08-19T13:23:49;26.00;66.70
31084;DHT22;36333;51.382;0.016;2022-08-19T13:26:17;26.00;66.50
31084;DHT22;36333;51.382;0.016;2022-08-19T13:28:45;26.10;66.20
31084;DHT22;36333;51.382;0.016;2022-08-19T13:31:42;26.20;63.90
31084;DHT22;36333;51.382;0.016;2022-08-19T13:34:34;27.40;67.40
31084;DHT22;36333;51.382;0.016;2022-08-19T13:37:06;26.30;65.60
31084;DHT22;36333;51.382;0.016;2022-08-19T13:39:35;26.30;65.90
31084;DHT22;36333;51.382;0.016;2022-08-19T13:42:02;26.40;65.30
31084;DHT22;36333;51.382;0.016;2022-08-19T13:44:31;26.70;64.50
31084;DHT22;36333;51.382;0.016;2022-08-19T13:47:05;27.00;63.50
31084;DHT22;36333;51.382;0.016;2022-08-19T13:49:35;27.20;63.50
31084;DHT22;36333;51.382;0.016;2022-08-19T13:52:04;27.20;62.30
31084;DHT22;36333;51.382;0.016;2022-08-19T13:54:33;27.00;62.80
31084;DHT22;36333;51.382;0.016;2022-08-19T13:57:00;26.90;63.10
31084;DHT22;36333;51.382;0.016;2022-08-19T13:59:31;26.70;63.00
31084;DHT22;36333;51.382;0.016;2022-08-19T14:02:00;26.70;63.10
31084;DHT22;36333;51.382;0.016;2022-08-19T14:04:30;27.00;62.50
31084;DHT22;36333;51.382;0.016;2022-08-19T14:06:58;27.60;62.70
31084;DHT22;36333;51.382;0.016;2022-08-19T14:09:26;28.50;62.50
31084;DHT22;36333;51.382;0.016;2022-08-19T14:11:54;29.90;63.80
31084;DHT22;36333;51.382;0.016;2022-08-19T14:14:24;30.70;58.30
31084;DHT22;36333;51.382;0.016;2022-08-19T14:16:55;30.70;56.90
31084;DHT22;36333;51.382;0.016;2022-08-19T14:19:22;30.90;56.60
31084;DHT22;36333;51.382;0.016;2022-08-19T14:21:50;31.20;55.80
31084;DHT22;36333;51.382;0.016;2022-08-19T14:24:17;31.30;55.90
31084;DHT22;36333;51.382;0.016;2022-08-19T14:26:45;31.40;56.30
31084;DHT22;36333;51.382;0.016;2022-08-19T14:29:13;31.70;55.10
31084;DHT22;36333;51.382;0.016;2022-08-19T14:31:40;32.00;51.90
31084;DHT22;36333;51.382;0.016;2022-08-19T14:34:10;32.00;53.90
31084;DHT22;36333;51.382;0.016;2022-08-19T14:36:39;31.70;53.60
31084;DHT22;36333;51.382;0.016;2022-08-19T14:39:09;31.50;53.60
31084;DHT22;36333;51.382;0.016;2022-08-19T14:41:40;31.40;52.20
31084;DHT22;36333;51.382;0.016;2022-08-19T14:44:09;30.90;51.50
31084;DHT22;36333;51.382;0.016;2022-08-19T14:46:39;30.60;52.30
31084;DHT22;36333;51.382;0.016;2022-08-19T14:49:16;30.60;51.90
31084;DHT22;36333;51.382;0.016;2022-08-19T14:51:44;30.90;50.50
31084;DHT22;36333;51.382;0.016;2022-08-19T14:54:14;31.10;50.70
31084;DHT22;36333;51.382;0.016;2022-08-19T14:56:41;31.40;50.00
31084;DHT22;36333;51.382;0.016;2022-08-19T14:59:09;31.90;49.80
31084;DHT22;36333;51.382;0.016;2022-08-19T15:01:36;32.50;49.50
31084;DHT22;36333;51.382;0.016;2022-08-19T15:04:04;33.20;47.70
31084;DHT22;36333;51.382;0.016;2022-08-19T15:06:32;33.30;47.50
31084;DHT22;36333;51.382;0.016;2022-08-19T15:09:00;33.10;46.20
31084;DHT22;36333;51.382;0.016;2022-08-19T15:11:31;32.40;47.30
31084;DHT22;36333;51.382;0.016;2022-08-19T15:14:00;32.10;46.90
31084;DHT22;36333;51.382;0.016;2022-08-19T15:16:28;31.90;48.20
31084;DHT22;36333;51.382;0.016;2022-08-19T15:18:57;31.70;47.40
31084;DHT22;36333;51.382;0.016;2022-08-19T15:21:28;31.40;45.70
31084;DHT22;36333;51.382;0.016;2022-08-19T15:23:57;30.90;47.80
31084;DHT22;36333;51.382;0.016;2022-08-19T15:26:25;30.60;48.10
31084;DHT22;36333;51.382;0.016;2022-08-19T15:28:55;30.30;47.90
31084;DHT22;36333;51.382;0.016;2022-08-19T15:31:23;29.80;47.50
31084;DHT22;36333;51.382;0.016;2022-08-19T15:33:56;29.20;47.70
31084;DHT22;36333;51.382;0.016;2022-08-19T15:36:26;28.70;48.50
31084;DHT22;36333;51.382;0.016;2022-08-19T15:38:55;28.40;48.90
31084;DHT22;36333;51.382;0.016;2022-08-19T15:41:28;28.00;49.30
31084;DHT22;36333;51.382;0.016;2022-08-19T15:44:03;27.50;49.40
31084;DHT22;36333;51.382;0.016;2022-08-19T15:46:34;27.20;50.20
31084;DHT22;36333;51.382;0.016;2022-08-19T15:49:05;27.00;50.40
31084;DHT22;36333;51.382;0.016;2022-08-19T15:51:34;26.80;51.20
31084;DHT22;36333;51.382;0.016;2022-08-19T15:54:04;26.70;51.10
31084;DHT22;36333;51.382;0.016;2022-08-19T15:56:44;26.50;51.60
31084;DHT22;36333;51.382;0.016;2022-08-19T15:59:30;26.30;52.10
31084;DHT22;36333;51.382;0.016;2022-08-19T16:02:19;26.00;52.90
31084;DHT22;36333;51.382;0.016;2022-08-19T16:05:08;25.80;53.20
31084;DHT22;36333;51.382;0.016;2022-08-19T16:07:55;25.60;53.60
31084;DHT22;36333;51.382;0.016;2022-08-19T16:10:24;25.50;53.90